createdAt,value
2023-05-18T00:02:10.126Z,63.73
2023-05-18T00:04:39.336Z,63.86
2023-05-18T00:07:08.178Z,64.18
2023-05-18T00:09:38.541Z,64.33
2023-05-18T00:12:09.437Z,64.50
2023-05-18T00:14:38.340Z,64.74
2023-05-18T00:17:07.165Z,64.87
2023-05-18T00:19:37.082Z,65.32
2023-05-18T00:22:08.244Z,65.17
2023-05-18T00:24:37.304Z,64.97
2023-05-18T00:27:06.443Z,65.19
2023-05-18T00:29:35.701Z,65.31
2023-05-18T00:32:05.803Z,65.40
2023-05-18T00:34:35.050Z,65.34
2023-05-18T00:37:04.364Z,65.33
2023-05-18T00:39:33.288Z,65.67
2023-05-18T00:42:02.831Z,65.86
2023-05-18T00:44:32.661Z,65.60
2023-05-18T00:47:02.940Z,65.54
2023-05-18T00:49:32.485Z,65.74
2023-05-18T00:52:03.324Z,66.22
2023-05-18T00:54:35.130Z,66.05
2023-05-18T00:57:05.947Z,65.94
2023-05-18T00:59:35.294Z,66.09
2023-05-18T01:02:04.814Z,66.37
2023-05-18T01:04:34.561Z,66.34
2023-05-18T01:07:07.113Z,66.10
2023-05-18T01:09:36.581Z,66.07
2023-05-18T01:12:37.066Z,66.15
2023-05-18T01:15:17.810Z,66.21
2023-05-18T01:18:01.342Z,65.94
2023-05-18T01:21:00.173Z,65.72
2023-05-18T01:23:52.693Z,66.01
2023-05-18T01:26:30.489Z,66.04
2023-05-18T01:29:03.831Z,66.00
2023-05-18T01:31:33.169Z,65.89
2023-05-18T01:34:02.472Z,65.71
2023-05-18T01:36:32.408Z,65.79
2023-05-18T01:39:02.354Z,65.70
2023-05-18T01:41:36.929Z,65.35
2023-05-18T01:44:13.630Z,65.33
2023-05-18T01:46:57.695Z,65.66
2023-05-18T01:49:48.450Z,65.62
2023-05-18T01:52:21.719Z,65.48
2023-05-18T01:54:58.493Z,65.56
2023-05-18T01:57:30.253Z,65.71
2023-05-18T02:00:04.603Z,65.50
2023-05-18T02:02:33.517Z,65.14
2023-05-18T02:05:05.397Z,64.96
2023-05-18T02:07:34.637Z,65.23
2023-05-18T02:10:03.938Z,65.21
2023-05-18T02:12:33.061Z,64.83
2023-05-18T02:15:05.937Z,64.54
2023-05-18T02:17:39.722Z,64.57
2023-05-18T02:20:09.308Z,64.77
2023-05-18T02:22:38.409Z,64.74
2023-05-18T02:25:08.144Z,64.67
2023-05-18T02:27:37.201Z,64.89
2023-05-18T02:30:09.166Z,65.06
2023-05-18T02:32:43.176Z,65.07
2023-05-18T02:35:12.407Z,64.61
2023-05-18T02:37:44.084Z,64.44
2023-05-18T02:40:14.732Z,64.79
2023-05-18T02:42:43.906Z,64.91
2023-05-18T02:45:12.960Z,64.64
2023-05-18T02:47:44.402Z,64.41
2023-05-18T02:50:13.594Z,64.49
2023-05-18T02:52:42.562Z,64.79
2023-05-18T02:55:14.281Z,64.62
2023-05-18T02:57:47.358Z,64.12
2023-05-18T03:00:17.376Z,63.73
2023-05-18T03:02:48.782Z,63.47
2023-05-18T03:05:18.720Z,63.44
2023-05-18T03:07:51.290Z,63.45
2023-05-18T03:10:20.533Z,63.34
2023-05-18T03:12:49.573Z,63.61
2023-05-18T03:15:18.426Z,63.97
2023-05-18T03:17:47.713Z,64.11
2023-05-18T03:20:16.620Z,63.88
2023-05-18T03:22:45.540Z,63.92
2023-05-18T03:25:15.662Z,64.07
2023-05-18T03:27:44.652Z,64.21
2023-05-18T03:30:13.911Z,64.17
2023-05-18T03:32:43.056Z,63.86
2023-05-18T03:35:12.590Z,63.58
2023-05-18T03:37:42.136Z,63.62
2023-05-18T03:40:14.417Z,63.94
2023-05-18T03:42:44.070Z,63.61
2023-05-18T03:45:13.625Z,62.81
2023-05-18T03:47:43.230Z,62.92
2023-05-18T03:50:12.677Z,62.97
2023-05-18T03:52:44.997Z,62.86
2023-05-18T03:55:14.628Z,62.73
2023-05-18T03:57:43.806Z,62.67
2023-05-18T04:00:14.597Z,62.60
2023-05-18T04:02:43.867Z,62.68
2023-05-18T04:05:12.905Z,62.99
2023-05-18T04:07:46.751Z,62.82
2023-05-18T04:10:17.802Z,62.54
2023-05-18T04:12:46.954Z,62.57
2023-05-18T04:15:16.056Z,62.91
2023-05-18T04:17:46.339Z,63.32
2023-05-18T04:20:15.827Z,63.50
2023-05-18T04:22:48.787Z,63.45
2023-05-18T04:25:19.128Z,63.19
2023-05-18T04:27:51.218Z,63.29
2023-05-18T04:30:23.021Z,63.24
2023-05-18T04:32:52.146Z,62.85
2023-05-18T04:35:21.419Z,62.69
2023-05-18T04:37:51.045Z,62.65
2023-05-18T04:40:20.374Z,62.72
2023-05-18T04:42:49.486Z,62.59
2023-05-18T04:45:20.189Z,62.45
2023-05-18T04:47:54.494Z,62.31
2023-05-18T04:50:24.316Z,62.12
2023-05-18T04:52:58.424Z,62.06
2023-05-18T04:55:29.284Z,62.15
2023-05-18T04:57:59.916Z,62.14
2023-05-18T05:00:30.396Z,62.01
2023-05-18T05:03:00.869Z,61.79
2023-05-18T05:05:30.790Z,61.70
2023-05-18T05:07:59.960Z,61.65
2023-05-18T05:10:28.993Z,61.47
2023-05-18T05:12:58.585Z,61.13
2023-05-18T05:15:27.690Z,60.97
2023-05-18T05:17:58.294Z,60.95
2023-05-18T05:20:27.913Z,60.94
2023-05-18T05:22:56.823Z,60.72
2023-05-18T05:25:26.254Z,60.53
2023-05-18T05:27:55.237Z,60.42
2023-05-18T05:30:24.083Z,60.08
2023-05-18T05:32:53.277Z,60.07
2023-05-18T05:35:22.306Z,59.95
2023-05-18T05:37:51.483Z,59.55
2023-05-18T05:40:20.861Z,58.71
2023-05-18T05:42:50.178Z,58.06
2023-05-18T05:45:19.815Z,57.43
2023-05-18T05:47:50.158Z,57.44
2023-05-18T05:50:19.257Z,56.82
2023-05-18T05:52:48.688Z,57.09
2023-05-18T05:55:17.560Z,56.58
2023-05-18T05:57:46.922Z,56.66
2023-05-18T06:00:16.721Z,56.36
2023-05-18T06:02:45.883Z,56.44
2023-05-18T06:05:14.820Z,55.64
2023-05-18T06:07:43.976Z,55.81
2023-05-18T06:10:13.382Z,55.95
2023-05-18T06:12:42.813Z,55.36
2023-05-18T06:15:12.171Z,54.91
2023-05-18T06:17:41.800Z,55.33
2023-05-18T06:20:12.716Z,54.86
2023-05-18T06:22:42.342Z,54.48
2023-05-18T06:25:12.444Z,53.30
2023-05-18T06:27:43.015Z,53.28
2023-05-18T06:30:13.099Z,52.86
2023-05-18T06:32:42.659Z,52.47
2023-05-18T06:35:13.346Z,51.71
2023-05-18T06:37:43.179Z,51.18
2023-05-18T06:40:13.500Z,50.63
2023-05-18T06:42:42.383Z,49.93
2023-05-18T06:45:12.063Z,49.01
2023-05-18T06:47:42.839Z,47.83
2023-05-18T06:50:12.299Z,46.91
2023-05-18T06:52:41.484Z,46.22
2023-05-18T06:55:11.245Z,45.32
2023-05-18T06:57:40.751Z,44.08
2023-05-18T07:00:13.232Z,43.96
2023-05-18T07:02:43.855Z,42.71
2023-05-18T07:05:13.396Z,42.03
2023-05-18T07:07:42.600Z,41.41
2023-05-18T07:10:12.013Z,40.34
2023-05-18T07:12:41.187Z,40.19
2023-05-18T07:15:12.056Z,39.70
2023-05-18T07:17:41.372Z,39.39
2023-05-18T07:20:10.785Z,38.95
2023-05-18T07:22:39.925Z,38.22
2023-05-18T07:25:09.278Z,38.11
2023-05-18T07:27:38.737Z,37.77
2023-05-18T07:30:09.354Z,37.81
2023-05-18T07:32:38.541Z,37.67
2023-05-18T07:35:08.201Z,37.42
2023-05-18T07:37:37.810Z,37.51
2023-05-18T07:40:10.256Z,37.48
2023-05-18T07:42:42.843Z,37.35
2023-05-18T07:45:13.613Z,37.70
2023-05-18T07:47:43.145Z,38.07
2023-05-18T07:50:12.797Z,38.25
2023-05-18T07:52:41.829Z,37.97
2023-05-18T07:55:11.984Z,38.21
2023-05-18T07:57:41.741Z,38.48
2023-05-18T08:00:13.706Z,38.76
2023-05-18T08:02:47.299Z,38.71
2023-05-18T08:05:18.992Z,39.01
2023-05-18T08:07:49.882Z,39.49
2023-05-18T08:10:19.829Z,39.75
2023-05-18T08:12:49.372Z,40.28
2023-05-18T08:15:19.693Z,40.35
2023-05-18T08:17:49.114Z,40.48
2023-05-18T08:20:18.818Z,40.28
2023-05-18T08:22:47.999Z,40.45
2023-05-18T08:25:17.720Z,40.34
2023-05-18T08:27:48.027Z,40.39
2023-05-18T08:30:22.481Z,40.72
2023-05-18T08:32:52.582Z,40.85
2023-05-18T08:35:22.135Z,40.81
2023-05-18T08:37:51.832Z,40.66
2023-05-18T08:40:22.040Z,40.21
2023-05-18T08:43:10.614Z,39.82
2023-05-18T08:45:50.792Z,39.90
2023-05-18T08:48:26.417Z,39.94
2023-05-18T08:51:00.374Z,39.60
2023-05-18T08:53:33.126Z,39.40
2023-05-18T08:56:03.720Z,39.37
2023-05-18T08:58:43.889Z,39.51
2023-05-18T09:01:14.687Z,39.63
2023-05-18T09:03:46.500Z,39.48
2023-05-18T09:06:16.559Z,39.68
2023-05-18T09:08:47.365Z,39.41
2023-05-18T09:11:17.760Z,39.37
2023-05-18T09:13:49.489Z,39.39
2023-05-18T09:16:19.889Z,39.61
2023-05-18T09:18:49.286Z,39.52
2023-05-18T09:21:18.445Z,39.88
2023-05-18T09:23:49.123Z,39.61
2023-05-18T09:26:19.875Z,39.85
2023-05-18T09:28:53.854Z,39.65
2023-05-18T09:31:28.315Z,39.50
2023-05-18T09:34:00.745Z,39.56
2023-05-18T09:36:32.657Z,39.52
2023-05-18T09:39:10.723Z,39.19
2023-05-18T09:41:40.674Z,39.50
2023-05-18T09:44:11.285Z,39.32
2023-05-18T09:46:41.078Z,39.20
2023-05-18T09:49:10.475Z,39.33
2023-05-18T09:51:40.627Z,39.28
2023-05-18T09:54:10.960Z,39.40
2023-05-18T09:56:40.101Z,38.92
2023-05-18T09:59:15.255Z,39.23
2023-05-18T10:02:01.673Z,39.14
2023-05-18T10:04:39.761Z,39.28
2023-05-18T10:07:17.462Z,39.85
2023-05-18T10:09:47.276Z,39.70
2023-05-18T10:12:22.988Z,39.77
2023-05-18T10:14:52.823Z,39.80
2023-05-18T10:17:26.363Z,39.65
2023-05-18T10:19:57.538Z,39.92
2023-05-18T10:22:29.311Z,39.45
2023-05-18T10:24:59.838Z,39.36
2023-05-18T10:27:31.193Z,39.01
2023-05-18T10:30:01.580Z,38.87
2023-05-18T10:32:34.649Z,38.83
2023-05-18T10:35:05.904Z,38.44
2023-05-18T10:37:38.914Z,38.13
2023-05-18T10:40:10.737Z,37.60
2023-05-18T10:42:41.987Z,36.85
2023-05-18T10:45:11.682Z,36.46
2023-05-18T10:47:43.175Z,36.42
2023-05-18T10:50:15.619Z,36.28
2023-05-18T10:52:46.805Z,35.75
2023-05-18T10:55:16.068Z,35.35
2023-05-18T10:58:02.484Z,34.70
2023-05-18T11:00:35.503Z,34.66
2023-05-18T11:03:08.963Z,33.91
2023-05-18T11:05:40.224Z,32.81
2023-05-18T11:08:10.408Z,31.96
2023-05-18T11:10:43.252Z,30.91
2023-05-18T11:13:15.379Z,30.47
2023-05-18T11:15:55.059Z,30.18
2023-05-18T11:18:41.202Z,29.81
2023-05-18T11:21:20.539Z,30.62
2023-05-18T11:24:21.262Z,30.39
2023-05-18T11:26:53.529Z,30.29
2023-05-18T11:29:40.906Z,29.64
2023-05-18T11:32:36.931Z,30.47
2023-05-18T11:35:11.550Z,30.96
2023-05-18T11:37:40.536Z,30.80
2023-05-18T11:40:17.283Z,30.73
2023-05-18T11:43:00.034Z,30.75
2023-05-18T11:45:29.471Z,30.80
2023-05-18T11:48:04.317Z,30.22
2023-05-18T11:50:34.494Z,30.70
2023-05-18T11:53:04.116Z,30.97
2023-05-18T11:55:39.925Z,31.36
2023-05-18T11:58:10.847Z,31.60
2023-05-18T12:00:41.493Z,31.89
2023-05-18T12:03:11.492Z,31.64
2023-05-18T12:05:50.359Z,31.78
2023-05-18T12:08:21.512Z,31.57
2023-05-18T12:10:52.123Z,31.50
2023-05-18T12:13:23.695Z,31.98
2023-05-18T12:15:56.856Z,31.25
2023-05-18T12:18:30.689Z,30.13
2023-05-18T12:21:05.703Z,29.82
2023-05-18T12:23:40.022Z,29.74
2023-05-18T12:26:09.833Z,30.39
2023-05-18T12:28:39.897Z,30.36
2023-05-18T12:31:11.537Z,29.89
2023-05-18T12:33:40.618Z,29.74
2023-05-18T12:36:14.678Z,30.55
2023-05-18T12:38:44.010Z,31.85
2023-05-18T12:41:26.890Z,32.40
2023-05-18T12:43:56.873Z,33.25
2023-05-18T12:46:26.833Z,33.56
2023-05-18T12:49:02.263Z,33.49
2023-05-18T12:51:35.919Z,33.27
2023-05-18T12:54:06.737Z,32.98
2023-05-18T12:57:04.481Z,32.82
2023-05-18T12:59:33.924Z,33.38
2023-05-18T13:02:03.825Z,33.53
2023-05-18T13:04:36.870Z,33.23
2023-05-18T13:07:06.334Z,33.16
2023-05-18T13:09:36.161Z,33.69
2023-05-18T13:12:08.100Z,33.85
2023-05-18T13:14:41.564Z,33.97
2023-05-18T13:17:11.252Z,34.10
2023-05-18T13:19:40.934Z,34.22
2023-05-18T13:22:10.514Z,34.90
2023-05-18T13:24:40.040Z,35.31
2023-05-18T13:27:09.643Z,36.06
2023-05-18T13:29:39.506Z,36.46
2023-05-18T13:32:09.830Z,36.56
2023-05-18T13:34:39.442Z,37.10
2023-05-18T13:37:10.349Z,37.51
2023-05-18T13:39:41.436Z,37.76
2023-05-18T13:42:10.671Z,37.97
2023-05-18T13:44:40.878Z,38.40
2023-05-18T13:47:10.366Z,38.81
2023-05-18T13:49:40.549Z,39.22
2023-05-18T14:12:26.883Z,44.12
2023-05-18T14:14:56.272Z,45.92
2023-05-18T14:17:25.667Z,47.63
2023-05-18T14:19:55.051Z,48.86
2023-05-18T14:22:24.066Z,50.92
2023-05-18T14:24:54.277Z,53.94
2023-05-18T14:27:23.520Z,55.65
2023-05-18T14:29:52.560Z,56.47
2023-05-18T14:32:22.252Z,57.29
2023-05-18T14:34:52.279Z,57.89
2023-05-18T14:37:21.608Z,58.66
2023-05-18T14:39:50.876Z,59.59
2023-05-18T14:42:20.161Z,60.45
2023-05-18T14:44:49.258Z,60.72
2023-05-18T14:47:18.504Z,60.92
2023-05-18T14:49:48.123Z,61.59
2023-05-18T14:52:17.422Z,62.42
2023-05-18T14:54:48.323Z,62.80
2023-05-18T14:57:17.586Z,62.47
2023-05-18T14:59:47.034Z,61.67
2023-05-18T15:02:17.312Z,61.83
2023-05-18T15:04:48.111Z,61.85
2023-05-18T15:07:18.493Z,61.11
2023-05-18T15:09:48.138Z,61.27
2023-05-18T15:12:18.371Z,61.63
2023-05-18T15:14:47.930Z,62.46
2023-05-18T15:17:18.665Z,61.81
2023-05-18T15:19:48.424Z,61.81
2023-05-18T15:22:17.986Z,63.00
2023-05-18T15:24:47.855Z,63.51
2023-05-18T15:27:18.931Z,63.27
2023-05-18T15:29:49.025Z,61.78
2023-05-18T15:32:18.895Z,62.05
2023-05-18T15:34:48.390Z,61.71
2023-05-18T15:37:17.537Z,60.33
2023-05-18T15:39:48.408Z,60.31
2023-05-18T15:42:20.539Z,59.85
2023-05-18T15:44:54.220Z,59.49
2023-05-18T15:47:23.303Z,59.24
2023-05-18T15:49:52.575Z,59.74
2023-05-18T15:52:21.966Z,60.33
2023-05-18T15:54:51.742Z,60.51
2023-05-18T15:57:22.807Z,60.99
2023-05-18T15:59:52.852Z,62.47
2023-05-18T16:02:24.364Z,63.15
2023-05-18T16:04:56.586Z,62.90
2023-05-18T16:07:25.927Z,62.64
2023-05-18T16:09:55.207Z,63.92
2023-05-18T16:12:24.487Z,64.48
2023-05-18T16:14:53.690Z,64.58
2023-05-18T16:17:23.024Z,63.90
2023-05-18T16:19:53.151Z,64.02
2023-05-18T16:22:22.406Z,64.06
2023-05-18T16:24:51.705Z,64.07
2023-05-18T16:27:20.916Z,63.91
2023-05-18T16:29:52.280Z,64.07
2023-05-18T16:32:21.943Z,64.55
2023-05-18T16:34:51.638Z,64.61
2023-05-18T16:37:21.372Z,64.68
2023-05-18T16:39:51.429Z,65.06
2023-05-18T16:42:23.197Z,65.19
2023-05-18T16:44:52.458Z,64.99
2023-05-18T16:47:22.817Z,64.73
2023-05-18T16:49:52.682Z,64.67
2023-05-18T16:52:22.638Z,64.69
2023-05-18T16:54:52.172Z,64.88
2023-05-18T16:57:21.815Z,65.13
2023-05-18T16:59:52.992Z,65.42
2023-05-18T17:02:25.266Z,65.91
2023-05-18T17:04:56.449Z,66.26
2023-05-18T17:07:27.638Z,66.01
2023-05-18T17:09:58.232Z,65.65
2023-05-18T17:12:28.208Z,65.97
2023-05-18T17:14:58.932Z,66.21
2023-05-18T17:17:28.842Z,66.58
2023-05-18T17:19:58.683Z,66.89
2023-05-18T17:22:29.123Z,67.19
2023-05-18T17:24:58.622Z,67.67
2023-05-18T17:27:28.258Z,67.87
2023-05-18T17:29:58.743Z,67.93
2023-05-18T17:32:29.182Z,67.85
2023-05-18T17:34:59.088Z,67.73
2023-05-18T17:37:29.356Z,68.30
2023-05-18T17:39:59.228Z,68.53
2023-05-18T17:42:29.051Z,68.40
2023-05-18T17:44:58.461Z,68.40
2023-05-18T17:47:28.398Z,68.44
2023-05-18T17:49:57.672Z,68.88
2023-05-18T17:52:27.084Z,69.03
2023-05-18T17:54:57.847Z,68.75
2023-05-18T17:57:27.455Z,68.15
2023-05-18T17:59:56.559Z,67.99
2023-05-18T18:02:26.751Z,68.30
2023-05-18T18:04:56.731Z,68.24
2023-05-18T18:07:26.833Z,67.98
2023-05-18T18:09:56.345Z,67.70
2023-05-18T18:12:26.865Z,67.92
2023-05-18T18:14:56.567Z,67.93
2023-05-18T18:17:27.001Z,67.59
2023-05-18T18:19:57.019Z,66.60
2023-05-18T18:22:28.232Z,66.52
2023-05-18T18:24:57.994Z,66.62
2023-05-18T18:27:28.342Z,66.36
2023-05-18T18:29:58.167Z,65.88
2023-05-18T18:32:28.038Z,65.78
2023-05-18T18:34:58.157Z,66.48
2023-05-18T18:37:28.903Z,66.71
2023-05-18T18:39:58.186Z,67.19
2023-05-18T18:42:27.543Z,67.16
2023-05-18T18:44:57.558Z,67.33
2023-05-18T18:47:26.959Z,67.73
2023-05-18T18:49:56.880Z,67.74
2023-05-18T18:52:26.623Z,67.52
2023-05-18T18:54:57.223Z,67.36
2023-05-18T18:57:28.146Z,67.63
2023-05-18T18:59:59.762Z,67.86
2023-05-18T19:02:29.879Z,67.78
2023-05-18T19:05:00.177Z,67.90
2023-05-18T19:07:30.660Z,68.21
2023-05-18T19:10:00.741Z,68.36
2023-05-18T19:12:31.055Z,68.43
2023-05-18T19:15:00.736Z,68.17
2023-05-18T19:17:29.991Z,68.29
2023-05-18T19:20:00.217Z,68.76
2023-05-18T19:22:30.132Z,68.76
2023-05-18T19:24:59.679Z,68.36
2023-05-18T19:27:29.668Z,68.14
2023-05-18T19:30:01.624Z,67.91
2023-05-18T19:32:34.177Z,67.78
2023-05-18T19:35:07.802Z,68.26
2023-05-18T19:37:37.525Z,68.14
2023-05-18T19:40:07.875Z,68.28
2023-05-18T19:42:37.659Z,68.74
2023-05-18T19:45:08.213Z,68.48
2023-05-18T19:47:37.724Z,68.65
2023-05-18T19:50:08.718Z,68.89
2023-05-18T19:52:39.233Z,69.12
2023-05-18T19:55:09.790Z,69.67
2023-05-18T19:57:39.032Z,70.04
2023-05-18T20:00:11.653Z,70.09
2023-05-18T20:02:42.685Z,70.58
2023-05-18T20:05:13.736Z,70.85
2023-05-18T20:07:43.196Z,70.99
2023-05-18T20:10:13.293Z,70.73
2023-05-18T20:12:42.853Z,70.68
2023-05-18T20:15:12.739Z,70.50
2023-05-18T20:17:43.205Z,70.69
2023-05-18T20:20:13.120Z,70.74
2023-05-18T20:22:42.409Z,70.91
2023-05-18T20:25:12.476Z,71.19
2023-05-18T20:27:42.618Z,71.52
2023-05-18T20:30:12.561Z,71.63
2023-05-18T20:32:42.691Z,71.12
2023-05-18T20:35:13.918Z,70.68
2023-05-18T20:37:44.508Z,70.81
2023-05-18T20:40:14.681Z,70.78
2023-05-18T20:42:44.908Z,70.54
2023-05-18T20:45:14.818Z,70.85
2023-05-18T20:47:44.836Z,70.71
2023-05-18T20:50:14.126Z,70.81
2023-05-18T20:52:43.897Z,70.90
2023-05-18T20:55:16.514Z,70.57
2023-05-18T20:57:49.807Z,70.96
2023-05-18T21:00:20.631Z,71.07
2023-05-18T21:02:50.092Z,71.19
2023-05-18T21:05:21.091Z,71.00
2023-05-18T21:07:52.333Z,70.89
2023-05-18T21:10:24.370Z,71.05
2023-05-18T21:12:54.432Z,71.42
2023-05-18T21:15:23.853Z,71.65
2023-05-18T21:17:53.378Z,71.42
2023-05-18T21:20:23.126Z,71.90
2023-05-18T21:22:53.130Z,71.90
2023-05-18T21:25:22.939Z,71.88
2023-05-18T21:27:52.816Z,71.68
2023-05-18T21:30:22.629Z,71.22
2023-05-18T21:32:53.480Z,71.88
2023-05-18T21:35:23.356Z,72.10
2023-05-18T21:37:52.800Z,72.43
2023-05-18T21:40:22.368Z,72.60
2023-05-18T21:42:52.016Z,72.78
2023-05-18T21:45:23.408Z,73.51
2023-05-18T21:47:53.961Z,73.69
2023-05-18T21:50:23.621Z,73.82
2023-05-18T21:52:53.126Z,73.37
2023-05-18T21:55:22.413Z,73.55
2023-05-18T21:57:51.797Z,74.07
2023-05-18T22:00:22.561Z,74.18
2023-05-18T22:02:52.543Z,73.84
2023-05-18T22:05:22.513Z,73.48
2023-05-18T22:07:53.037Z,73.73
2023-05-18T22:10:22.725Z,73.79
2023-05-18T22:12:52.031Z,74.10
2023-05-18T22:15:23.257Z,73.97
2023-05-18T22:17:55.276Z,73.93
2023-05-18T22:20:24.626Z,73.91
2023-05-18T22:22:54.064Z,73.76
2023-05-18T22:25:25.377Z,73.27
2023-05-18T22:27:55.172Z,72.62
2023-05-18T22:30:24.552Z,72.79
2023-05-18T22:32:54.072Z,72.77
2023-05-18T22:35:23.586Z,72.93
2023-05-18T22:37:53.226Z,72.56
2023-05-18T22:40:23.381Z,72.06
2023-05-18T22:42:55.546Z,72.55
2023-05-18T22:45:25.293Z,72.97
2023-05-18T22:47:54.569Z,72.77
2023-05-18T22:50:24.431Z,72.69
2023-05-18T22:52:54.426Z,72.98
2023-05-18T22:55:23.658Z,73.19
2023-05-18T22:57:52.595Z,73.20
2023-05-18T23:00:22.292Z,73.15
2023-05-18T23:02:53.573Z,73.05
2023-05-18T23:05:22.580Z,73.42
2023-05-18T23:07:52.805Z,73.80
2023-05-18T23:10:22.115Z,73.70
2023-05-18T23:12:51.603Z,73.53
2023-05-18T23:15:20.598Z,73.66
2023-05-18T23:17:49.529Z,74.01
2023-05-18T23:20:18.756Z,73.96
2023-05-18T23:22:48.053Z,73.85
2023-05-18T23:25:18.032Z,73.65
2023-05-18T23:27:47.262Z,73.76
2023-05-18T23:30:16.497Z,74.09
2023-05-18T23:32:47.453Z,74.32
2023-05-18T23:35:17.951Z,73.82
2023-05-18T23:37:50.640Z,74.07
2023-05-18T23:40:20.152Z,74.23
2023-05-18T23:42:49.683Z,74.22
2023-05-18T23:45:19.453Z,73.64
2023-05-18T23:47:49.296Z,73.10
2023-05-18T23:50:19.029Z,73.14
2023-05-18T23:52:48.654Z,73.43
2023-05-18T23:55:22.696Z,73.71
2023-05-18T23:57:52.703Z,73.47
